createdAt,value
2022-10-18T00:01:29.925Z,15.71
2022-10-18T00:03:56.466Z,15.31
2022-10-18T00:06:22.984Z,15.43
2022-10-18T00:08:49.543Z,15.44
2022-10-18T00:11:16.515Z,15.34
2022-10-18T00:13:43.426Z,15.36
2022-10-18T00:16:13.351Z,15.32
2022-10-18T00:18:40.282Z,15.35
2022-10-18T00:21:10.508Z,15.47
2022-10-18T00:23:37.146Z,15.47
2022-10-18T00:26:06.971Z,15.66
2022-10-18T00:28:35.107Z,15.47
2022-10-18T00:31:16.939Z,15.53
2022-10-18T00:33:45.726Z,15.40
2022-10-18T00:36:12.970Z,15.54
2022-10-18T00:38:40.486Z,15.55
2022-10-18T00:41:09.528Z,15.33
2022-10-18T00:43:54.513Z,15.60
2022-10-18T00:46:24.240Z,15.33
2022-10-18T00:51:21.527Z,15.29
2022-10-18T00:53:50.984Z,15.36
2022-10-18T00:56:20.899Z,15.53
2022-10-18T00:58:49.283Z,15.19
2022-10-18T01:01:27.599Z,15.66
2022-10-18T01:03:56.833Z,15.47
2022-10-18T01:06:24.057Z,15.35
2022-10-18T01:09:05.692Z,15.61
2022-10-18T01:11:59.702Z,15.68
2022-10-18T01:15:00.438Z,15.71
2022-10-18T01:17:33.265Z,15.72
2022-10-18T01:20:24.709Z,15.80
2022-10-18T01:23:00.600Z,15.61
2022-10-18T01:26:12.555Z,16.05
2022-10-18T01:29:01.676Z,15.95
2022-10-18T01:31:43.778Z,16.04
2022-10-18T01:34:14.450Z,15.81
2022-10-18T01:36:49.170Z,15.85
2022-10-18T01:39:24.188Z,15.94
2022-10-18T01:41:56.494Z,15.85
2022-10-18T01:44:26.155Z,16.12
2022-10-18T01:46:58.490Z,16.25
2022-10-18T01:49:28.792Z,16.20
2022-10-18T01:51:57.049Z,16.13
2022-10-18T01:54:36.093Z,15.91
2022-10-18T01:57:31.069Z,16.36
2022-10-18T02:00:12.733Z,16.25
2022-10-18T02:02:59.445Z,16.28
2022-10-18T02:05:47.468Z,16.04
2022-10-18T02:08:38.534Z,16.32
2022-10-18T02:11:08.108Z,16.19
2022-10-18T02:13:40.653Z,16.08
2022-10-18T02:16:14.491Z,15.80
2022-10-18T02:18:48.343Z,15.88
2022-10-18T02:21:19.706Z,15.99
2022-10-18T02:23:47.121Z,16.18
2022-10-18T02:26:15.204Z,15.99
2022-10-18T02:28:42.292Z,15.87
2022-10-18T02:31:29.850Z,16.01
2022-10-18T02:34:00.597Z,15.94
2022-10-18T02:36:32.488Z,16.31
2022-10-18T02:39:06.351Z,16.22
2022-10-18T02:41:33.689Z,16.12
2022-10-18T02:44:00.206Z,16.16
2022-10-18T02:48:53.199Z,16.40
2022-10-18T02:51:20.904Z,16.57
2022-10-18T02:53:47.578Z,16.40
2022-10-18T02:56:14.122Z,16.29
2022-10-18T02:58:40.565Z,16.29
2022-10-18T03:01:07.358Z,16.51
2022-10-18T03:03:33.881Z,16.37
2022-10-18T03:06:00.870Z,16.25
2022-10-18T03:08:30.649Z,16.19
2022-10-18T03:11:08.297Z,16.47
2022-10-18T03:13:36.265Z,16.31
2022-10-18T03:16:03.423Z,16.35
2022-10-18T03:18:29.978Z,16.48
2022-10-18T03:20:56.683Z,16.61
2022-10-18T03:23:31.720Z,16.56
2022-10-18T03:25:58.502Z,16.63
2022-10-18T03:28:25.347Z,16.44
2022-10-18T03:30:51.969Z,16.44
2022-10-18T03:33:18.816Z,16.47
2022-10-18T03:35:46.961Z,16.61
2022-10-18T03:38:26.626Z,16.36
2022-10-18T03:40:58.754Z,16.25
2022-10-18T03:43:29.909Z,16.13
2022-10-18T03:50:32.829Z,16.33
2022-10-18T04:00:58.065Z,16.04
2022-10-18T04:14:11.995Z,15.95
2022-10-18T04:51:54.663Z,15.74
2022-10-18T05:13:11.893Z,15.65
2022-10-18T05:46:45.166Z,14.84
2022-10-18T06:17:16.956Z,15.52
2022-10-18T06:24:01.067Z,15.33
2022-10-18T06:37:49.933Z,15.41
2022-10-18T06:41:00.087Z,15.42
2022-10-18T06:43:57.080Z,15.29
2022-10-18T06:46:33.255Z,15.36
2022-10-18T06:49:19.086Z,15.40
2022-10-18T07:08:02.204Z,15.81
2022-10-18T07:10:43.648Z,15.60
2022-10-18T07:14:38.393Z,15.79
2022-10-18T07:43:18.558Z,15.95
2022-10-18T07:45:53.077Z,15.71
2022-10-18T07:48:19.583Z,15.72
2022-10-18T07:50:53.833Z,15.86
2022-10-18T07:53:20.519Z,15.96
2022-10-18T07:55:47.048Z,15.64
2022-10-18T07:58:13.692Z,15.63
2022-10-18T08:00:40.342Z,15.60
2022-10-18T08:03:06.829Z,16.00
2022-10-18T08:08:54.419Z,15.79
2022-10-18T08:11:25.367Z,15.88
2022-10-18T08:13:52.927Z,15.82
2022-10-18T08:16:24.781Z,15.79
2022-10-18T08:18:51.466Z,15.58
2022-10-18T08:21:19.272Z,15.68
2022-10-18T08:23:46.119Z,15.79
2022-10-18T08:26:21.047Z,16.05
2022-10-18T08:28:54.186Z,16.06
2022-10-18T08:31:26.997Z,16.02
2022-10-18T08:33:57.884Z,15.82
2022-10-18T08:36:31.871Z,15.98
2022-10-18T08:38:58.664Z,15.96
2022-10-18T08:41:37.231Z,16.00
2022-10-18T08:44:17.645Z,15.80
2022-10-18T08:46:51.958Z,15.93
2022-10-18T08:49:30.242Z,15.92
2022-10-18T08:51:58.301Z,15.84
2022-10-18T08:54:35.220Z,15.87
2022-10-18T08:57:05.122Z,15.90
2022-10-18T08:59:39.733Z,15.96
2022-10-18T09:02:31.438Z,16.10
2022-10-18T09:05:28.516Z,15.90
2022-10-18T09:08:18.934Z,15.69
2022-10-18T09:11:22.000Z,15.59
2022-10-18T09:13:57.564Z,15.79
2022-10-18T09:16:38.074Z,15.54
2022-10-18T09:19:12.617Z,15.44
2022-10-18T09:21:52.470Z,15.78
2022-10-18T09:24:46.859Z,15.76
2022-10-18T10:29:54.558Z,15.69
2022-10-18T10:48:46.512Z,15.19
2022-10-18T10:51:14.459Z,15.50
2022-10-18T10:53:57.714Z,15.70
2022-10-18T10:56:27.911Z,15.86
2022-10-18T10:58:57.720Z,15.83
2022-10-18T11:01:29.201Z,15.82
2022-10-18T11:04:11.226Z,15.83
2022-10-18T11:06:47.631Z,15.70
2022-10-18T11:09:24.651Z,15.86
2022-10-18T11:12:40.554Z,15.82
2022-10-18T11:15:10.557Z,15.90
2022-10-18T11:17:43.260Z,15.90
2022-10-18T11:20:25.234Z,15.95
2022-10-18T11:23:01.363Z,15.82
2022-10-18T11:25:50.159Z,15.95
2022-10-18T11:28:37.287Z,15.69
2022-10-18T11:31:40.981Z,15.63
2022-10-18T11:34:16.442Z,15.55
2022-10-18T11:37:09.691Z,15.87
2022-10-18T11:40:08.657Z,15.91
2022-10-18T11:43:17.095Z,16.08
2022-10-18T11:45:49.677Z,15.84
2022-10-18T11:48:53.486Z,16.06
2022-10-18T11:52:07.728Z,16.03
2022-10-18T11:54:56.627Z,15.94
2022-10-18T11:57:39.580Z,15.80
2022-10-18T12:00:45.086Z,15.91
2022-10-18T12:03:50.739Z,16.07
2022-10-18T12:06:20.927Z,15.81
2022-10-18T12:08:52.984Z,15.75
2022-10-18T12:11:27.655Z,15.99
2022-10-18T12:14:23.406Z,15.64
2022-10-18T12:16:58.428Z,15.75
2022-10-18T12:19:35.541Z,15.53
2022-10-18T12:23:16.434Z,15.70
2022-10-18T12:35:24.553Z,15.61
2022-10-18T12:38:59.019Z,16.03
2022-10-18T12:54:22.034Z,15.95
2022-10-18T12:58:25.055Z,16.13
2022-10-18T13:22:24.006Z,15.86
2022-10-18T13:25:28.888Z,16.30
2022-10-18T13:35:50.243Z,16.42
2022-10-18T13:38:43.572Z,16.28
2022-10-18T13:41:51.565Z,16.26
2022-10-18T13:56:32.539Z,16.51
2022-10-18T13:59:59.609Z,16.20
2022-10-18T14:29:48.412Z,16.61
2022-10-18T14:35:33.701Z,16.12
2022-10-18T14:38:02.100Z,16.45
2022-10-18T14:40:31.366Z,16.27
2022-10-18T14:43:03.227Z,16.28
2022-10-18T14:45:29.831Z,16.02
2022-10-18T14:48:15.154Z,16.26
2022-10-18T14:50:43.856Z,16.39
2022-10-18T14:53:16.909Z,16.05
2022-10-18T14:55:43.643Z,15.77
2022-10-18T14:58:15.153Z,15.96
2022-10-18T15:00:58.072Z,15.96
2022-10-18T15:03:26.304Z,15.78
2022-10-18T15:05:59.537Z,15.91
2022-10-18T15:08:38.597Z,15.84
2022-10-18T15:11:10.473Z,15.91
2022-10-18T15:14:12.025Z,16.23
2022-10-18T15:16:41.557Z,15.80
2022-10-18T15:19:28.760Z,15.63
2022-10-18T15:22:32.870Z,15.88
2022-10-18T15:25:14.945Z,15.78
2022-10-18T15:28:48.858Z,15.41
2022-10-18T15:31:32.275Z,15.47
2022-10-18T15:34:16.693Z,15.22
2022-10-18T15:36:52.958Z,15.27
2022-10-18T15:39:41.450Z,15.05
2022-10-18T15:42:38.866Z,15.28
2022-10-18T15:45:22.451Z,14.78
2022-10-18T15:55:33.981Z,14.45
2022-10-18T15:58:23.764Z,14.29
2022-10-18T16:00:52.049Z,14.23
2022-10-18T16:03:24.455Z,14.47
2022-10-18T16:06:05.505Z,14.26
2022-10-18T16:08:38.217Z,14.41
2022-10-18T16:14:38.293Z,13.78
2022-10-18T16:28:49.027Z,13.49
2022-10-18T16:31:31.498Z,13.29
2022-10-18T16:46:35.087Z,12.59
2022-10-18T17:38:52.070Z,11.89
2022-10-18T17:51:23.991Z,11.95
2022-10-18T21:17:17.768Z,10.70
2022-10-18T21:19:46.629Z,10.42
2022-10-18T21:22:15.200Z,10.80
2022-10-18T21:24:42.773Z,10.75
2022-10-18T21:27:09.376Z,10.70
2022-10-18T21:29:35.969Z,10.43
2022-10-18T21:32:02.877Z,10.64
2022-10-18T21:34:29.901Z,10.92
2022-10-18T21:37:23.207Z,10.63
2022-10-18T21:39:49.783Z,10.52
2022-10-18T21:42:16.248Z,10.78
2022-10-18T21:44:42.895Z,10.65
2022-10-18T21:47:09.366Z,10.69
2022-10-18T21:49:35.761Z,10.69
2022-10-18T21:52:07.427Z,10.59
2022-10-18T21:54:34.140Z,10.67
2022-10-18T21:57:00.686Z,10.65
2022-10-18T21:59:27.228Z,10.72
2022-10-18T22:01:53.662Z,10.57
2022-10-18T22:04:23.391Z,10.47
2022-10-18T22:06:50.242Z,10.69
2022-10-18T22:09:19.267Z,10.63
2022-10-18T22:11:52.166Z,10.50
2022-10-18T22:14:18.663Z,10.98
2022-10-18T22:16:45.213Z,10.95
2022-10-18T22:19:12.104Z,11.11
2022-10-18T22:21:38.605Z,10.70
2022-10-18T22:24:07.741Z,10.96
2022-10-18T22:26:37.034Z,10.98
2022-10-18T22:29:13.093Z,11.23
2022-10-18T22:31:42.168Z,11.00
2022-10-18T22:34:13.295Z,10.67
2022-10-18T22:36:42.691Z,10.85
2022-10-18T22:39:43.867Z,10.81
2022-10-18T22:42:10.528Z,10.88
2022-10-18T22:44:37.064Z,10.82
2022-10-18T22:47:03.652Z,10.97
2022-10-18T22:49:32.708Z,10.96
2022-10-18T22:51:59.202Z,11.06
2022-10-18T22:54:25.760Z,11.08
2022-10-18T22:56:52.448Z,11.01
2022-10-18T22:59:19.011Z,11.22
2022-10-18T23:01:45.488Z,10.92
2022-10-18T23:04:11.962Z,11.14
2022-10-18T23:06:40.010Z,11.24
2022-10-18T23:09:08.840Z,11.11
2022-10-18T23:11:36.818Z,11.32
2022-10-18T23:14:05.701Z,11.10
2022-10-18T23:16:32.264Z,11.21
2022-10-18T23:18:59.535Z,11.08
2022-10-18T23:21:28.161Z,11.15
2022-10-18T23:23:56.116Z,11.14
2022-10-18T23:26:24.734Z,11.24
2022-10-18T23:28:53.453Z,11.29
2022-10-18T23:31:31.347Z,10.93
2022-10-18T23:34:01.065Z,11.01
2022-10-18T23:36:28.312Z,10.92
2022-10-18T23:38:55.365Z,11.07
2022-10-18T23:41:22.351Z,11.27
2022-10-18T23:43:48.920Z,11.11
2022-10-18T23:46:17.257Z,11.37
2022-10-18T23:48:44.405Z,11.30
2022-10-18T23:51:11.392Z,10.97
2022-10-18T23:53:38.499Z,11.32
2022-10-18T23:56:10.883Z,11.18
2022-10-18T23:58:37.783Z,11.24
